YABA

Albany Airport (Australia)

Airport
ICAO code
YABA
IATA Code
ALH
Summary
ICAO Region
APAC
ICAO Territory
Location

Drome, Western Australia

Serving
Albany
Elevation
233 ft
Coordinates
34° 56' 36" S , 117° 48' 32" E
Metar
Observation
YABA 101555Z AUTO 25007KT 9999 // SCT022 BKN029 OVC036 12/10 Q1024
Station
Albany Aerodrome
Date/Time
2022-08-10 15:55:00
Wind direction
250°
Wind speed
07 kts
Lowest cloud amount
scattered clouds
Temperature
12°C
Dew point
10°C
Humidity
87%
QNH
1024 hPa
Weather condition
n/a

Airport map

Aerial View

SKYbrary Partners:

Safety knowledge contributed by: